• Join FlightAware (Why Join?)
  • Login
  • US Flag 
08:29AM EDT


 

Airport Tracker/Info


-or-


 

Live Flight TrackerFlight Track Log ✈ SKW6528 ✈ 02-May-2013 ✈ KPHX - KLAX

Flight Track Log - Related Links

Times and Time Zones

All times are in EDT time to prevent confusion due to time zone crossing. See the SKW6528 flight status page for this flight to view local times or setup timezone preferences in your user account.

Time Position Orientation Groundspeed Altitude Reporting Facility
EDT Latitude Longitude Course Direction KTS MPH feet Rate Location/Type
08:35PM 33.4344 -111.9033 89° East 207 238 4,600  Level Albuquerque Center
08:36PM 33.4028 -111.8342 119° Southeast 272 313 6,900 2,220 Climbing Albuquerque Center
08:37PM 33.3253 -111.8500 190° South 285 328 9,200 2,100 Climbing Albuquerque Center
08:38PM 33.2969 -111.9408 250° West 316 364 11,300 2,160 Climbing Albuquerque Center
08:39PM 33.4496 -112.7896 273° West  Level FlightAware Approximate
08:39PM 33.3206 -112.0469 285° West 331 381 13,700  Level Albuquerque Center
08:40PM 33.3444 -112.1819 282° West 344 396 16,400 2,340 Climbing Albuquerque Center
08:41PM 33.3647 -112.3036 281° West 359 413 18,600 2,220 Climbing Albuquerque Center
08:42PM 33.3850 -112.4169 282° West 359 413 21,100 2,220 Climbing Albuquerque Center
08:43PM 33.4050 -112.5328 282° West 355 409 23,200 1,560 Climbing Albuquerque Center
08:44PM 33.4258 -112.6564 281° West 364 419 24,300 1,080 Climbing Albuquerque Center
08:45PM 33.4467 -112.7864 281° West 387 445 25,500 1,260 Climbing Albuquerque Center
08:46PM 33.4861 -112.9128 291° West 401 461 27,000 1,440 Climbing Albuquerque Center
08:47PM 33.5303 -113.0369 293° West 406 467 28,500 1,500 Climbing Albuquerque Center
08:48PM 33.5833 -113.1853 293° West 405 466 30,200 1,500 Climbing Albuquerque Center
08:49PM 33.6261 -113.3094 293° West 405 466 31,700 840 Climbing Albuquerque Center
08:50PM 33.6686 -113.4317 293° West 402 463 32,000 120 Climbing Albuquerque Center
08:51PM 33.7117 -113.5603 292° West 407 468 32,000  Level Albuquerque Center
08:52PM 33.7558 -113.6869 293° West 410 472 32,000  Level Albuquerque Center
08:53PM 33.8039 -113.8136 295° West 413 475 32,000  Level Albuquerque Center
08:54PM 33.8356 -113.9472 286° West 420 483 32,000  Level Albuquerque Center
08:55PM 33.8608 -114.1119 281° West 420 483 32,000 -300 Level Albuquerque Center
08:56PM 33.8836 -114.2478 281° West 422 486 31,400 -600 Descending Albuquerque Center
08:57PM 33.9047 -114.3872 280° West 425 489 30,800 -600 Descending Albuquerque Center
08:59PM 33.9333 -114.5567 282° West 422 486 30,100 -360 Descending Los Angeles Center
09:00PM 33.9375 -114.6964 272° West 418 481 30,000 -60 Descending Los Angeles Center
09:01PM 33.9400 -114.8367 271° West 421 484 30,000  Level Los Angeles Center
09:02PM 33.9431 -114.9803 272° West 429 494 30,000  Level Los Angeles Center
09:03PM 33.9456 -115.1539 271° West 434 499 30,000  Level Los Angeles Center
09:04PM 33.9472 -115.2992 271° West 436 502 30,000  Level Los Angeles Center
09:05PM 33.9489 -115.4428 271° West 431 496 30,000  Level Los Angeles Center
09:06PM 33.9497 -115.5875 270° West 434 499 30,000  Level Los Angeles Center
09:07PM 33.9511 -115.7311 271° West 432 497 30,000  Level Los Angeles Center
09:08PM 33.9522 -115.9000 271° West 425 489 30,000  Level Los Angeles Center
09:09PM 33.9533 -116.0692 271° West 423 487 30,000 -60 Level Los Angeles Center
09:10PM 33.9539 -116.2136 270° West 429 494 29,900 -600 Descending Los Angeles Center
09:11PM 33.9539 -116.3583 270° West 433 498 28,800 -1,620 Descending Los Angeles Center
09:12PM 33.9542 -116.5022 270° West 434 499 26,600 -2,280 Descending Los Angeles Center
09:13PM 33.9544 -116.6742 270° West 431 496 24,100 -2,460 Descending Los Angeles Center
09:14PM 33.9544 -116.8144 270° West 423 487 21,600 -2,400 Descending Los Angeles Center
09:15PM 33.9500 -116.9333 267° West 378 435 19,500 -2,160 Descending Southern California TRACON
09:16PM 33.9500 -117.0500 270° West 366 421 17,700 -1,500 Descending Southern California TRACON
09:17PM 33.9500 -117.1667 270° West 347 399 16,700 -1,080 Descending Southern California TRACON
09:18PM 33.9333 -117.2833 260° West 344 396 15,600 -1,080 Descending Southern California TRACON
09:19PM 33.9333 -117.4000 270° West 346 398 14,600 -1,140 Descending Southern California TRACON
09:20PM 33.9833 -117.5000 301° West 336 387 13,400 -1,320 Descending Southern California TRACON
09:21PM 34.0167 -117.6000 292° West 341 392 12,100 -1,500 Descending Southern California TRACON
09:22PM 34.0000 -117.7000 259° West 312 359 10,500 -1,440 Descending Southern California TRACON
09:23PM 34.0000 -117.8000 270° West 305 351 9,300 -1,260 Descending Southern California TRACON
09:24PM 33.9833 -117.9167 260° West 300 345 8,000 -1,260 Descending Southern California TRACON
09:25PM 33.9667 -118.0000 256° West 294 338 6,700 -1,440 Descending Southern California TRACON
09:26PM 33.9667 -118.1000 270° West 275 316 5,200 -1,620 Descending Southern California TRACON
09:27PM 33.9625 -118.1464 264° West 285 328 4,200 -1,500 Descending Los Angeles Center
09:28PM 33.9539 -118.2256 263° West 261 300 2,900 -1,260 Descending Los Angeles Center